Yamaska, Canada
Current Conditions -  °F | °C
As of 5:00 PM on Monday 20 Oct 2014 (Local Time) from CYRQ Reporting Station
Overcast Overcast  
Wind Chill: 41°   Ceiling: 7500
Heat Index: 45°   Visibility: 9mi
Dew Point: 28°   Wind: 7mph
Humidity: 53%   Direction: 230°SW
Pressure: 29.91"   Gusts: NA
Location:  46°N, 72.92°W
Report Text: CYRQ 202100Z AUTO 23006KT 9SM OVC075 07/M02 A2991 RMK TS/LTNG TEMPO UNAVBL SLP132
Loading
Personal Weather Stations






























Interactive Weather Map
Tropical Storm Tracking
New forecast layout! Learn more

10-Day Weather Forecast

Advertisements
Track Severe Weather on mobile